Time;durP1;ratioP1;P1;durP2;ratioP2;P2;SDS_P1;SDS_P2;PMS_P1;PMS_P2;Temp;Humidity;BMP_temperature;BMP_pressure;BME280_temperature;BME280_humidity;BME280_pressure;Samples;Min_cycle;Max_cycle;Signal;HPM_P1;HPM_P2
2022/02/27 00:01:55;;;;;;;8.03;3.17;;;-0.80;99.90;;;;;;4999947;28;20210;-80
2022/02/27 00:04:21;;;;;;;4.70;3.03;;;-0.80;99.90;;;;;;5015902;28;20575;-80
2022/02/27 00:06:47;;;;;;;7.13;2.40;;;-0.80;99.90;;;;;;5015271;28;20202;-80
2022/02/27 00:09:12;;;;;;;6.90;2.87;;;-0.90;99.90;;;;;;5017748;28;20210;-77
2022/02/27 00:11:38;;;;;;;4.47;3.13;;;-0.90;99.90;;;;;;5015749;28;20584;-79
2022/02/27 00:14:04;;;;;;;5.70;2.77;;;-0.90;99.90;;;;;;5016171;28;20603;-77
2022/02/27 00:16:30;;;;;;;5.00;2.73;;;-0.90;99.90;;;;;;5016563;28;20188;-80
2022/02/27 00:18:55;;;;;;;7.70;2.93;;;-1.00;99.90;;;;;;5015789;28;20654;-80
2022/02/27 00:21:21;;;;;;;6.77;3.00;;;-1.00;99.90;;;;;;5016335;28;20204;-79
2022/02/27 00:23:46;;;;;;;5.73;2.97;;;-1.10;99.90;;;;;;5016929;28;20286;-80
2022/02/27 00:26:12;;;;;;;6.17;2.67;;;-1.10;99.90;;;;;;5016648;28;20231;-77
2022/02/27 00:28:39;;;;;;;6.00;2.83;;;-1.10;99.90;;;;;;5016059;28;20189;-77
2022/02/27 00:31:05;;;;;;;5.17;2.70;;;-1.10;99.90;;;;;;5015202;28;20200;-82
2022/02/27 00:33:30;;;;;;;4.90;3.00;;;-1.10;99.90;;;;;;5000532;28;20190;-78
2022/02/27 00:35:56;;;;;;;6.90;2.47;;;-1.10;99.90;;;;;;5015411;28;20255;-77
2022/02/27 00:38:21;;;;;;;6.30;2.67;;;-1.10;99.90;;;;;;5016815;28;20188;-77
2022/02/27 00:40:47;;;;;;;7.47;2.93;;;-1.20;99.90;;;;;;5014924;28;20208;-77
2022/02/27 00:43:13;;;;;;;7.00;2.40;;;-1.20;99.90;;;;;;5017579;28;20666;-80
2022/02/27 00:45:38;;;;;;;8.60;2.80;;;-1.20;99.90;;;;;;5015887;28;20291;-81
2022/02/27 00:48:04;;;;;;;6.93;3.00;;;-1.20;99.90;;;;;;5015032;28;20651;-80
2022/02/27 00:50:30;;;;;;;4.57;2.73;;;-1.20;99.90;;;;;;5002224;28;20753;-80
2022/02/27 00:52:56;;;;;;;5.50;2.53;;;-1.20;99.90;;;;;;5018842;28;20310;-80
2022/02/27 00:55:22;;;;;;;5.63;2.67;;;-1.30;99.90;;;;;;5019989;28;20229;-78
2022/02/27 00:57:47;;;;;;;3.50;2.57;;;-1.30;99.90;;;;;;5020757;28;20225;-80
2022/02/27 01:00:13;;;;;;;4.37;3.00;;;-1.20;99.90;;;;;;5003656;28;20212;-79
2022/02/27 01:02:39;;;;;;;4.33;2.40;;;-1.10;99.90;;;;;;5020689;28;20207;-80
2022/02/27 01:05:05;;;;;;;4.10;2.30;;;-1.10;99.90;;;;;;5017377;28;20192;-80
2022/02/27 01:07:31;;;;;;;6.17;2.60;;;-1.20;99.90;;;;;;5003902;28;20745;-79
2022/02/27 01:09:57;;;;;;;6.23;2.30;;;-1.20;99.90;;;;;;5000740;28;20732;-80
2022/02/27 01:12:22;;;;;;;6.53;2.50;;;-1.20;99.90;;;;;;5001831;28;20616;-80
2022/02/27 01:14:48;;;;;;;4.17;2.50;;;-1.30;99.90;;;;;;5017863;28;20187;-78
2022/02/27 01:17:14;;;;;;;4.13;2.50;;;-1.30;99.90;;;;;;5001943;28;20184;-79
2022/02/27 01:19:39;;;;;;;4.50;2.17;;;-1.20;99.90;;;;;;5009349;28;20228;-81
2022/02/27 01:22:05;;;;;;;6.83;2.53;;;-1.30;99.90;;;;;;5000770;28;20187;-78
2022/02/27 01:24:30;;;;;;;5.13;2.83;;;-1.30;99.90;;;;;;5003314;28;20195;-77
2022/02/27 01:26:56;;;;;;;6.97;2.90;;;-1.30;99.90;;;;;;5002732;28;20204;-79
2022/02/27 01:29:22;;;;;;;6.07;2.47;;;-1.40;99.90;;;;;;5003054;28;20227;-82
2022/02/27 01:31:47;;;;;;;7.63;2.50;;;-1.40;99.90;;;;;;5015624;28;20227;-81
2022/02/27 01:34:13;;;;;;;4.83;2.77;;;-1.40;99.90;;;;;;5001371;28;20180;-80
2022/02/27 01:36:39;;;;;;;4.90;2.33;;;-1.40;99.90;;;;;;5017770;28;20185;-80
2022/02/27 01:39:04;;;;;;;4.47;2.23;;;-1.40;99.90;;;;;;5001281;28;20933;-80
2022/02/27 01:41:30;;;;;;;3.57;2.27;;;-1.40;99.90;;;;;;5003660;28;20200;-81
2022/02/27 01:43:55;;;;;;;4.57;2.63;;;-1.40;99.90;;;;;;5018562;28;20198;-80
2022/02/27 01:46:21;;;;;;;4.80;2.37;;;-1.50;99.90;;;;;;5000829;28;20662;-78
2022/02/27 01:48:47;;;;;;;3.60;2.00;;;-1.40;99.90;;;;;;5002507;28;20191;-78
2022/02/27 01:51:13;;;;;;;4.23;2.13;;;-1.50;99.90;;;;;;5001497;28;20200;-79
2022/02/27 01:53:38;;;;;;;5.77;2.43;;;-1.50;99.90;;;;;;5002630;28;20201;-80
2022/02/27 01:56:04;;;;;;;5.63;2.33;;;-1.50;99.90;;;;;;5001902;28;20268;-82
2022/02/27 01:58:31;;;;;;;4.07;2.20;;;-1.60;99.90;;;;;;5002573;28;20180;-79
2022/02/27 02:00:58;;;;;;;6.00;2.10;;;-1.60;99.90;;;;;;5002166;28;20296;-78
2022/02/27 02:03:24;;;;;;;5.13;2.37;;;-1.60;99.90;;;;;;5015065;28;20196;-78
2022/02/27 02:05:50;;;;;;;6.50;2.30;;;-1.60;99.90;;;;;;4999313;28;20223;-80
2022/02/27 02:08:16;;;;;;;5.90;2.40;;;-1.60;99.90;;;;;;5003573;28;20668;-80
2022/02/27 02:10:42;;;;;;;4.20;2.30;;;-1.70;99.90;;;;;;5001419;28;20257;-79
2022/02/27 02:13:08;;;;;;;5.53;3.07;;;-1.70;99.90;;;;;;5000714;28;20208;-79
2022/02/27 02:15:34;;;;;;;4.37;2.50;;;-1.70;99.90;;;;;;5001230;28;20234;-78
2022/02/27 02:17:59;;;;;;;6.27;3.13;;;-1.70;99.90;;;;;;5001511;28;20188;-81
2022/02/27 02:20:25;;;;;;;5.33;2.77;;;-1.70;99.90;;;;;;5016418;28;20202;-80
2022/02/27 02:22:51;;;;;;;5.63;2.73;;;-1.70;99.90;;;;;;5001070;28;20207;-80
2022/02/27 02:25:17;;;;;;;4.33;3.10;;;-1.80;99.90;;;;;;5000159;28;20192;-79
2022/02/27 02:27:43;;;;;;;5.80;3.00;;;-1.70;99.90;;;;;;5002070;28;20242;-79
2022/02/27 02:30:09;;;;;;;4.63;3.03;;;-1.60;99.90;;;;;;5000863;28;20199;-79
2022/02/27 02:32:54;;;;;;;5.30;3.33;;;-1.60;99.90;;;;;;5017693;28;20215;-79
2022/02/27 02:35:21;;;;;;;6.10;3.37;;;-1.70;99.90;;;;;;5000479;28;20176;-79
2022/02/27 02:37:46;;;;;;;6.93;3.27;;;-1.70;99.90;;;;;;5001619;28;20196;-83
2022/02/27 02:40:13;;;;;;;6.00;3.53;;;-1.70;99.90;;;;;;5015290;28;20570;-79
2022/02/27 02:42:43;;;;;;;7.63;3.57;;;-1.70;99.90;;;;;;5016748;28;20188;-79
2022/02/27 02:45:11;;;;;;;8.53;3.87;;;-1.70;99.90;;;;;;5002272;28;20230;-78
2022/02/27 02:47:44;;;;;;;7.17;4.03;;;-1.50;99.90;;;;;;5001438;28;20674;-80
2022/02/27 02:50:11;;;;;;;8.00;3.97;;;-1.50;99.90;;;;;;5002206;28;20199;-80
2022/02/27 02:52:37;;;;;;;6.37;3.70;;;-1.60;99.90;;;;;;5002042;28;20704;-80
2022/02/27 02:55:11;;;;;;;10.33;4.27;;;-1.60;99.90;;;;;;4999245;28;20296;-80
2022/02/27 02:57:37;;;;;;;6.47;4.17;;;-1.70;99.90;;;;;;5001595;28;20202;-78
2022/02/27 03:00:08;;;;;;;7.13;4.00;;;-1.70;99.90;;;;;;4999674;28;20203;-79
2022/02/27 03:02:35;;;;;;;5.37;4.00;;;-1.60;99.90;;;;;;5017249;28;20200;-80
2022/02/27 03:05:00;;;;;;;7.07;3.83;;;-1.70;99.90;;;;;;5007314;28;20176;-80
2022/02/27 03:07:26;;;;;;;7.83;4.30;;;-1.70;99.90;;;;;;4999832;28;20172;-79
2022/02/27 03:09:51;;;;;;;8.80;4.27;;;-1.60;99.90;;;;;;5016098;28;20714;-80
2022/02/27 03:12:17;;;;;;;9.80;3.90;;;-1.50;99.90;;;;;;4999105;28;20229;-79
2022/02/27 03:14:43;;;;;;;7.43;3.93;;;-1.50;99.90;;;;;;5000769;28;20194;-78
2022/02/27 03:17:08;;;;;;;6.33;4.30;;;-1.60;99.90;;;;;;4998968;28;20241;-80
2022/02/27 03:19:34;;;;;;;6.63;3.83;;;-1.60;99.90;;;;;;5000380;28;20286;-79
2022/02/27 03:21:59;;;;;;;7.13;3.83;;;-1.60;99.90;;;;;;5000040;28;20257;-76
2022/02/27 03:24:25;;;;;;;9.43;3.83;;;-1.50;99.90;;;;;;4999928;28;20195;-79
2022/02/27 03:26:51;;;;;;;8.17;4.07;;;-1.60;99.90;;;;;;5016593;28;20326;-78
2022/02/27 03:29:16;;;;;;;9.23;4.50;;;-1.70;99.90;;;;;;4999667;28;20210;-80
2022/02/27 03:31:42;;;;;;;7.43;4.20;;;-1.80;99.90;;;;;;5000372;28;20322;-79
2022/02/27 03:34:07;;;;;;;9.50;4.27;;;-1.80;99.90;;;;;;5020039;28;20635;-79
2022/02/27 03:36:33;;;;;;;7.90;4.20;;;-1.70;99.90;;;;;;5017308;28;20222;-79
2022/02/27 03:38:59;;;;;;;6.47;3.90;;;-1.70;99.90;;;;;;5018706;28;20187;-80
2022/02/27 03:41:24;;;;;;;8.03;4.10;;;-1.80;99.90;;;;;;5017884;28;20289;-77
2022/02/27 03:43:50;;;;;;;10.97;3.97;;;-1.80;99.90;;;;;;5016840;28;20188;-80
2022/02/27 03:46:15;;;;;;;8.07;4.20;;;-1.90;99.90;;;;;;5017865;28;20718;-80
2022/02/27 03:48:41;;;;;;;8.00;3.87;;;-1.80;99.90;;;;;;5018528;28;20697;-78
2022/02/27 03:51:07;;;;;;;8.30;4.13;;;-1.70;99.90;;;;;;5018138;28;20204;-79
2022/02/27 03:53:33;;;;;;;7.20;4.23;;;-1.80;99.90;;;;;;5016830;28;20196;-79
2022/02/27 03:55:59;;;;;;;9.40;4.00;;;-1.80;99.90;;;;;;5002479;28;20191;-79
2022/02/27 03:58:24;;;;;;;6.10;4.60;;;-1.80;99.90;;;;;;5002383;28;20183;-77
2022/02/27 04:00:50;;;;;;;5.20;4.17;;;-1.80;99.90;;;;;;5016921;28;20285;-79
2022/02/27 04:03:16;;;;;;;12.27;4.40;;;-1.80;99.90;;;;;;5016953;28;20205;-80
2022/02/27 04:05:41;;;;;;;5.70;3.97;;;-1.80;99.90;;;;;;5019558;28;20491;-79
2022/02/27 04:08:08;;;;;;;7.30;4.50;;;-1.90;99.90;;;;;;5018035;28;20730;-78
2022/02/27 04:10:33;;;;;;;8.77;4.27;;;-1.90;99.90;;;;;;5019476;28;20214;-79
2022/02/27 04:12:59;;;;;;;6.20;4.50;;;-1.90;99.90;;;;;;5018336;28;20612;-78
2022/02/27 04:15:25;;;;;;;7.87;4.73;;;-2.00;99.90;;;;;;5019858;28;20190;-80
2022/02/27 04:17:51;;;;;;;8.50;4.00;;;-2.00;99.90;;;;;;5002542;28;20316;-79
2022/02/27 04:20:17;;;;;;;8.07;4.07;;;-2.00;99.90;;;;;;5019060;28;20220;-77
2022/02/27 04:22:44;;;;;;;7.93;4.10;;;-2.00;99.90;;;;;;5021018;28;20199;-79
2022/02/27 04:25:10;;;;;;;6.20;3.97;;;-2.00;99.90;;;;;;5023757;28;20348;-80
2022/02/27 04:27:35;;;;;;;8.33;4.47;;;-2.00;99.90;;;;;;5025105;28;20229;-79
2022/02/27 04:30:01;;;;;;;7.07;3.93;;;-1.90;99.90;;;;;;5023648;28;20203;-79
2022/02/27 04:32:27;;;;;;;6.70;4.00;;;-1.90;99.90;;;;;;5025731;28;20312;-79
2022/02/27 04:34:52;;;;;;;7.87;4.50;;;-1.90;99.90;;;;;;5024688;28;20180;-80
2022/02/27 04:37:18;;;;;;;6.07;4.67;;;-1.90;99.90;;;;;;5023397;28;20206;-78
2022/02/27 04:39:44;;;;;;;5.23;4.00;;;-1.80;99.90;;;;;;5025536;28;20220;-78
2022/02/27 04:42:09;;;;;;;5.73;4.37;;;-1.80;99.90;;;;;;5009481;28;20191;-77
2022/02/27 04:44:35;;;;;;;4.33;3.80;;;-1.80;99.90;;;;;;5027414;28;20257;-77
2022/02/27 04:47:00;;;;;;;6.83;4.63;;;-1.80;99.90;;;;;;5013491;28;20242;-79
2022/02/27 04:49:26;;;;;;;7.77;4.47;;;-1.80;99.90;;;;;;5009940;28;20204;-78
2022/02/27 04:51:52;;;;;;;6.97;3.73;;;-1.90;99.90;;;;;;5025293;28;20223;-77
2022/02/27 04:54:18;;;;;;;8.97;4.63;;;-1.90;99.90;;;;;;5029470;28;20183;-78
2022/02/27 04:56:44;;;;;;;5.67;4.40;;;-1.90;99.90;;;;;;5011547;28;20202;-77
2022/02/27 04:59:09;;;;;;;7.53;4.53;;;-1.90;99.90;;;;;;5010337;28;20188;-78
2022/02/27 05:01:36;;;;;;;6.20;4.43;;;-1.90;99.90;;;;;;5031107;28;20208;-78
2022/02/27 05:04:02;;;;;;;7.60;4.47;;;-2.00;99.90;;;;;;5015937;28;20200;-78
2022/02/27 05:06:27;;;;;;;6.00;4.10;;;-2.00;99.90;;;;;;5026564;28;20226;-79
2022/02/27 05:08:53;;;;;;;7.83;4.63;;;-1.90;99.90;;;;;;5022971;28;20195;-78
2022/02/27 05:11:19;;;;;;;7.90;4.40;;;-1.80;99.90;;;;;;5020808;28;20204;-78
2022/02/27 05:13:44;;;;;;;9.10;4.43;;;-1.80;99.90;;;;;;5020404;28;20191;-77
2022/02/27 05:16:10;;;;;;;10.80;4.77;;;-1.70;99.90;;;;;;5022012;28;20183;-80
2022/02/27 05:18:35;;;;;;;7.03;4.60;;;-1.70;99.90;;;;;;5020935;28;20218;-80
2022/02/27 05:21:01;;;;;;;5.47;4.37;;;-1.70;99.90;;;;;;5004025;28;20230;-80
2022/02/27 05:23:27;;;;;;;6.77;5.00;;;-1.70;99.90;;;;;;5021517;28;20195;-80
2022/02/27 05:25:58;;;;;;;8.03;5.10;;;-1.80;99.90;;;;;;5019602;28;20271;-79
2022/02/27 05:28:24;;;;;;;9.90;5.10;;;-1.90;99.90;;;;;;5020635;28;20212;-79
2022/02/27 05:30:50;;;;;;;8.83;5.13;;;-2.00;99.90;;;;;;5021677;28;20277;-80
2022/02/27 05:33:16;;;;;;;7.90;4.60;;;-1.90;99.90;;;;;;5002961;28;20208;-76
2022/02/27 05:35:41;;;;;;;8.87;5.37;;;-1.90;99.90;;;;;;5020729;28;20175;-81
2022/02/27 05:38:07;;;;;;;10.17;5.77;;;-1.90;99.90;;;;;;5021000;28;20243;-77
2022/02/27 05:40:33;;;;;;;9.93;6.07;;;-1.70;99.90;;;;;;5020353;28;20566;-80
2022/02/27 05:42:58;;;;;;;8.33;6.03;;;-1.70;99.90;;;;;;5021302;28;20271;-79
2022/02/27 05:45:24;;;;;;;8.77;5.13;;;-1.70;99.90;;;;;;5005071;28;20664;-79
2022/02/27 05:47:49;;;;;;;8.67;5.63;;;-1.70;99.90;;;;;;5021546;28;20275;-80
2022/02/27 05:50:15;;;;;;;10.57;5.93;;;-1.70;99.90;;;;;;5022351;28;20266;-80
2022/02/27 05:52:41;;;;;;;9.27;5.77;;;-1.70;99.90;;;;;;5004678;28;20206;-79
2022/02/27 05:55:07;;;;;;;9.07;5.60;;;-1.70;99.90;;;;;;5020256;28;20199;-80
2022/02/27 05:57:32;;;;;;;11.87;6.17;;;-1.70;99.90;;;;;;5002666;28;20187;-78
2022/02/27 05:59:58;;;;;;;11.73;5.83;;;-1.70;99.90;;;;;;5022559;28;20201;-78
2022/02/27 06:02:24;;;;;;;8.43;6.23;;;-1.70;99.90;;;;;;5033514;28;20204;-78
2022/02/27 06:04:49;;;;;;;11.27;6.87;;;-1.60;99.90;;;;;;5009428;28;20192;-81
2022/02/27 06:07:15;;;;;;;11.57;6.67;;;-1.50;99.90;;;;;;5021359;28;20563;-81
2022/02/27 06:09:40;;;;;;;8.90;6.10;;;-1.50;99.90;;;;;;5019086;28;20207;-78
2022/02/27 06:12:06;;;;;;;7.63;6.03;;;-1.50;99.90;;;;;;5019288;28;20658;-81
2022/02/27 06:14:32;;;;;;;10.93;6.50;;;-1.50;99.90;;;;;;5018559;28;20226;-81
2022/02/27 06:16:58;;;;;;;11.10;6.80;;;-1.40;99.90;;;;;;5002811;28;20181;-79
2022/02/27 06:19:23;;;;;;;11.27;6.40;;;-1.40;99.90;;;;;;5018183;28;20180;-80
2022/02/27 06:21:49;;;;;;;11.07;6.47;;;-1.40;99.90;;;;;;5018691;28;20188;-79
2022/02/27 06:24:14;;;;;;;10.80;5.83;;;-1.30;99.90;;;;;;5002676;28;20678;-81
2022/02/27 06:26:40;;;;;;;8.90;6.07;;;-1.20;99.90;;;;;;5017420;28;20680;-80
2022/02/27 06:29:06;;;;;;;12.97;7.17;;;-1.30;99.90;;;;;;5018470;28;20216;-80
2022/02/27 06:31:31;;;;;;;10.87;7.97;;;-1.30;99.90;;;;;;5017411;28;22110;-79
2022/02/27 06:33:57;;;;;;;9.77;6.43;;;-1.30;99.90;;;;;;5016501;28;20270;-81
2022/02/27 06:36:23;;;;;;;12.47;7.03;;;-1.30;99.90;;;;;;5001309;28;20194;-79
2022/02/27 06:38:48;;;;;;;9.50;6.63;;;-1.20;99.90;;;;;;5017457;28;20184;-81
2022/02/27 06:41:15;;;;;;;12.10;7.83;;;-1.20;99.90;;;;;;5017078;28;20756;-78
2022/02/27 06:43:42;;;;;;;12.53;8.40;;;-1.20;99.90;;;;;;5018020;28;20180;-81
2022/02/27 06:46:08;;;;;;;11.87;8.93;;;-1.20;99.90;;;;;;5018032;28;20176;-81
2022/02/27 06:48:34;;;;;;;17.53;11.90;;;-1.20;99.90;;;;;;5017101;28;20184;-78
2022/02/27 06:50:59;;;;;;;13.57;9.33;;;-1.10;99.90;;;;;;5017870;28;20204;-81
2022/02/27 06:53:25;;;;;;;14.27;9.57;;;-1.00;99.90;;;;;;5016105;28;20234;-80
2022/02/27 06:55:51;;;;;;;19.07;12.17;;;-1.00;99.90;;;;;;5016458;28;20328;-81
2022/02/27 06:58:17;;;;;;;20.80;15.13;;;-0.90;99.90;;;;;;5018816;28;20245;-79
2022/02/27 07:00:44;;;;;;;15.97;10.47;;;-0.90;99.90;;;;;;5008650;28;20211;-81
2022/02/27 07:03:10;;;;;;;13.47;10.07;;;-0.70;99.90;;;;;;4998431;28;20231;-80
2022/02/27 07:05:36;;;;;;;13.43;8.53;;;-0.70;99.90;;;;;;5016910;28;20192;-78
2022/02/27 07:08:02;;;;;;;15.27;9.50;;;-0.60;99.90;;;;;;5016220;28;20193;-78
2022/02/27 07:10:28;;;;;;;13.20;8.70;;;-0.60;99.90;;;;;;5017046;28;20223;-77
2022/02/27 07:12:53;;;;;;;12.47;8.20;;;-0.50;99.90;;;;;;5016930;28;20203;-80
2022/02/27 07:15:19;;;;;;;14.87;9.53;;;-0.50;99.90;;;;;;5016111;28;20187;-81
2022/02/27 07:17:45;;;;;;;23.30;13.97;;;-0.40;99.90;;;;;;5000134;28;20584;-78
2022/02/27 07:20:11;;;;;;;18.73;11.67;;;-0.40;99.90;;;;;;5015028;28;20230;-79
2022/02/27 07:22:37;;;;;;;15.17;9.57;;;-0.30;99.90;;;;;;5015403;28;20642;-80
2022/02/27 07:25:04;;;;;;;13.00;8.87;;;-0.20;99.90;;;;;;4999552;28;20184;-81
2022/02/27 07:27:31;;;;;;;11.20;8.50;;;-0.20;99.90;;;;;;5014565;28;20472;-80
2022/02/27 07:29:58;;;;;;;13.80;8.87;;;-0.20;99.90;;;;;;5014309;28;20207;-80
2022/02/27 07:32:23;;;;;;;13.13;9.50;;;0.00;99.90;;;;;;5014589;28;20242;-80
2022/02/27 07:34:49;;;;;;;12.83;7.50;;;0.00;99.90;;;;;;5015700;28;20249;-79
2022/02/27 07:37:15;;;;;;;13.47;8.43;;;0.10;99.90;;;;;;4998823;28;20199;-81
2022/02/27 07:39:40;;;;;;;15.67;10.47;;;0.20;99.90;;;;;;5016468;28;20754;-77
2022/02/27 07:42:06;;;;;;;16.70;8.67;;;0.20;99.90;;;;;;5016035;28;20193;-80
2022/02/27 07:44:32;;;;;;;12.97;8.33;;;0.30;99.90;;;;;;5014875;28;20187;-79
2022/02/27 07:46:57;;;;;;;16.87;11.63;;;0.30;99.90;;;;;;5014685;28;20194;-79
2022/02/27 07:49:23;;;;;;;15.90;9.70;;;0.40;99.90;;;;;;5013652;28;20195;-79
2022/02/27 07:51:49;;;;;;;15.00;13.13;;;0.50;99.90;;;;;;5014615;28;20208;-79
2022/02/27 07:54:14;;;;;;;16.73;11.33;;;0.60;99.90;;;;;;4997036;28;20184;-78
2022/02/27 07:56:40;;;;;;;16.73;13.37;;;0.70;99.90;;;;;;5012761;28;20215;-79
2022/02/27 07:59:05;;;;;;;24.20;17.70;;;0.90;99.90;;;;;;5006198;28;20183;-80
2022/02/27 08:01:33;;;;;;;16.13;11.63;;;0.90;99.90;;;;;;5022963;28;20207;-79
2022/02/27 08:03:59;;;;;;;18.27;10.90;;;1.00;99.90;;;;;;5023932;28;20285;-77
2022/02/27 08:06:25;;;;;;;20.33;15.50;;;1.20;99.90;;;;;;5023832;28;20176;-77
2022/02/27 08:08:50;;;;;;;17.70;9.77;;;1.20;99.90;;;;;;5009111;28;20191;-78
2022/02/27 08:11:16;;;;;;;17.83;12.00;;;1.30;99.90;;;;;;5008362;28;20196;-79
2022/02/27 08:13:42;;;;;;;15.97;11.60;;;1.40;99.90;;;;;;5022231;28;20237;-79
2022/02/27 08:16:09;;;;;;;14.93;10.07;;;1.50;99.90;;;;;;5007001;28;20223;-77
2022/02/27 08:18:35;;;;;;;13.00;8.07;;;1.60;99.90;;;;;;5008222;28;20195;-79
2022/02/27 08:21:01;;;;;;;12.37;8.07;;;1.60;99.90;;;;;;5008539;28;20632;-77
2022/02/27 08:23:27;;;;;;;15.13;8.07;;;1.70;99.90;;;;;;5008200;28;20227;-81
2022/02/27 08:25:53;;;;;;;12.27;7.70;;;1.80;99.90;;;;;;5008841;28;20194;-78
2022/02/27 08:28:20;;;;;;;14.23;7.70;;;1.80;99.90;;;;;;5009306;28;20258;-79
2022/02/27 08:30:46;;;;;;;12.07;7.40;;;1.90;99.90;;;;;;5010124;28;20207;-77
2022/02/27 08:33:11;;;;;;;12.47;7.47;;;1.90;99.90;;;;;;5013776;28;20211;-78
2022/02/27 08:35:37;;;;;;;11.53;7.20;;;2.10;99.90;;;;;;5017109;28;20199;-78
2022/02/27 08:38:03;;;;;;;10.03;6.60;;;2.10;99.90;;;;;;5011426;28;20184;-77
2022/02/27 08:40:28;;;;;;;12.13;7.03;;;2.30;99.90;;;;;;5009942;28;20203;-79
2022/02/27 08:42:55;;;;;;;12.67;7.93;;;2.40;99.90;;;;;;5010456;28;20192;-76
2022/02/27 08:45:22;;;;;;;13.13;7.70;;;2.40;99.90;;;;;;5011494;28;20329;-78
2022/02/27 08:47:49;;;;;;;10.23;7.27;;;2.60;99.90;;;;;;5023596;28;20196;-78
2022/02/27 08:50:14;;;;;;;11.10;7.80;;;2.60;99.90;;;;;;5015782;28;20211;-79
2022/02/27 08:52:40;;;;;;;13.20;7.70;;;2.70;99.90;;;;;;5024410;28;20582;-78
2022/02/27 08:55:07;;;;;;;13.17;7.33;;;2.80;99.90;;;;;;5004403;28;20278;-78
2022/02/27 08:57:33;;;;;;;13.07;7.57;;;2.90;99.90;;;;;;5021937;28;20187;-80
2022/02/27 08:59:58;;;;;;;12.83;6.97;;;2.90;99.90;;;;;;5022899;28;20206;-78
2022/02/27 09:02:24;;;;;;;10.33;7.13;;;3.00;99.90;;;;;;5005810;28;20203;-78
2022/02/27 09:04:52;;;;;;;11.60;6.50;;;3.00;99.90;;;;;;5004903;28;20198;-78
2022/02/27 09:07:18;;;;;;;13.13;7.27;;;3.10;99.90;;;;;;5003963;28;20176;-76
2022/02/27 09:09:44;;;;;;;10.97;7.60;;;3.20;99.90;;;;;;5000851;28;20207;-78
2022/02/27 09:12:11;;;;;;;14.77;8.10;;;3.10;99.90;;;;;;5011088;28;20203;-79
2022/02/27 09:14:37;;;;;;;12.43;8.13;;;3.20;99.90;;;;;;5011437;28;20211;-80
2022/02/27 09:17:03;;;;;;;13.00;8.23;;;3.30;99.90;;;;;;5011796;28;20180;-78
2022/02/27 09:19:29;;;;;;;16.40;9.13;;;3.30;99.90;;;;;;5004092;28;20204;-76
2022/02/27 09:21:55;;;;;;;16.27;9.30;;;3.30;99.90;;;;;;5004439;28;20215;-78
2022/02/27 09:24:21;;;;;;;15.47;8.30;;;3.40;99.90;;;;;;5003888;28;21107;-80
2022/02/27 09:26:46;;;;;;;18.37;9.37;;;3.60;99.90;;;;;;5019714;28;20183;-78
2022/02/27 09:29:13;;;;;;;17.03;9.37;;;3.40;99.90;;;;;;5019486;28;21088;-77
2022/02/27 09:31:38;;;;;;;13.83;9.00;;;3.50;99.90;;;;;;5005941;28;20200;-78
2022/02/27 09:34:05;;;;;;;14.53;8.60;;;3.70;99.90;;;;;;5006552;28;20237;-77
2022/02/27 09:36:31;;;;;;;15.63;9.63;;;3.60;99.90;;;;;;5005324;28;20175;-77
2022/02/27 09:38:57;;;;;;;18.83;9.30;;;3.50;99.90;;;;;;5004125;28;20184;-77
2022/02/27 09:41:22;;;;;;;15.60;9.13;;;3.60;99.90;;;;;;5003632;28;20675;-78
2022/02/27 09:43:53;;;;;;;16.47;9.57;;;3.50;99.90;;;;;;5005203;28;20181;-81
2022/02/27 09:46:23;;;;;;;15.53;10.10;;;3.50;99.90;;;;;;5003023;28;20563;-78
2022/02/27 09:48:49;;;;;;;18.43;10.00;;;3.60;99.90;;;;;;5000545;28;20180;-78
2022/02/27 09:51:15;;;;;;;17.50;10.23;;;3.70;99.90;;;;;;5016427;28;20196;-79
2022/02/27 09:53:41;;;;;;;17.60;9.97;;;3.80;99.90;;;;;;5000669;28;20211;-82
2022/02/27 09:56:07;;;;;;;18.33;10.87;;;3.90;99.90;;;;;;4998821;28;20267;-78
2022/02/27 09:58:33;;;;;;;17.80;9.90;;;3.80;99.90;;;;;;4999898;28;20187;-79
2022/02/27 10:00:59;;;;;;;17.93;10.13;;;3.90;99.90;;;;;;4997019;28;20208;-77
2022/02/27 10:03:29;;;;;;;16.83;10.23;;;3.70;99.90;;;;;;4996056;28;20364;-76
2022/02/27 10:06:06;;;;;;;16.70;9.03;;;3.70;99.90;;;;;;4994231;28;20640;-76
2022/02/27 10:08:40;;;;;;;14.57;9.80;;;3.80;99.90;;;;;;4994066;28;20656;-78
2022/02/27 10:11:06;;;;;;;14.17;9.13;;;4.00;99.90;;;;;;5001737;28;20207;-77
2022/02/27 10:13:42;;;;;;;19.07;11.07;;;4.00;99.90;;;;;;4992082;28;20207;-79
2022/02/27 10:16:28;;;;;;;15.60;9.87;;;4.10;99.90;;;;;;4998338;28;20230;-77
2022/02/27 10:18:56;;;;;;;16.27;10.67;;;4.40;99.90;;;;;;4994488;28;20180;-79
2022/02/27 10:21:27;;;;;;;18.27;11.60;;;4.30;99.90;;;;;;4996417;28;20208;-76
2022/02/27 10:23:56;;;;;;;21.47;12.20;;;4.00;99.90;;;;;;4995384;28;20183;-76
2022/02/27 10:26:23;;;;;;;19.27;12.07;;;4.00;99.90;;;;;;4997841;28;20299;-77
2022/02/27 10:29:07;;;;;;;20.53;11.80;;;3.90;99.90;;;;;;5015118;28;20187;-79
2022/02/27 10:31:34;;;;;;;19.47;12.67;;;3.60;99.90;;;;;;5002677;28;20216;-76
2022/02/27 10:34:22;;;;;;;19.13;11.00;;;3.60;99.90;;;;;;4987921;28;20185;-75
2022/02/27 10:36:56;;;;;;;18.53;10.83;;;3.70;99.90;;;;;;4983895;28;20184;-77
2022/02/27 10:39:32;;;;;;;21.27;11.50;;;3.80;99.90;;;;;;4997580;28;20171;-79
2022/02/27 10:42:13;;;;;;;29.43;15.83;;;3.80;99.90;;;;;;4996607;28;20191;-78
2022/02/27 10:44:57;;;;;;;40.73;20.73;;;3.70;99.90;;;;;;4996689;28;20720;-79
2022/02/27 10:47:31;;;;;;;22.20;13.67;;;3.90;99.90;;;;;;4994969;28;20241;-79
2022/02/27 10:49:59;;;;;;;21.13;12.57;;;4.40;99.90;;;;;;4997886;28;20216;-76
2022/02/27 10:52:30;;;;;;;17.93;11.50;;;4.40;99.90;;;;;;4996952;28;20203;-78
2022/02/27 10:55:04;;;;;;;19.47;12.27;;;4.60;99.90;;;;;;4995972;28;20188;-77
2022/02/27 10:57:41;;;;;;;18.90;11.93;;;4.70;99.90;;;;;;5004964;28;20270;-78
2022/02/27 11:00:14;;;;;;;20.10;12.60;;;4.90;99.90;;;;;;4993535;28;20210;-79
2022/02/27 11:02:42;;;;;;;17.90;11.03;;;4.80;99.90;;;;;;5010638;28;20269;-77
2022/02/27 11:05:12;;;;;;;17.97;12.30;;;4.70;99.90;;;;;;4996401;28;20207;-78
2022/02/27 11:07:40;;;;;;;19.87;12.57;;;4.60;99.90;;;;;;4997249;28;20188;-77
2022/02/27 11:10:12;;;;;;;19.00;12.30;;;4.40;99.90;;;;;;4994115;28;20740;-80
2022/02/27 11:12:38;;;;;;;22.50;12.83;;;4.60;99.90;;;;;;4994787;28;20266;-77
2022/02/27 11:15:07;;;;;;;23.17;13.20;;;4.70;99.90;;;;;;4998853;28;20180;-80
2022/02/27 11:17:33;;;;;;;19.77;12.87;;;4.70;99.90;;;;;;4995285;28;20192;-77
2022/02/27 11:20:01;;;;;;;23.53;15.90;;;4.70;99.90;;;;;;5010252;28;20787;-78
2022/02/27 11:22:31;;;;;;;23.53;15.13;;;4.60;99.90;;;;;;4996528;28;20658;-76
2022/02/27 11:24:59;;;;;;;23.70;13.93;;;4.50;99.90;;;;;;4995360;28;20608;-77
2022/02/27 11:27:27;;;;;;;20.07;13.90;;;4.40;99.90;;;;;;5016066;28;20180;-78
2022/02/27 11:29:57;;;;;;;23.40;15.83;;;4.60;99.90;;;;;;4992480;28;20238;-79
2022/02/27 11:32:23;;;;;;;27.67;16.57;;;4.60;99.90;;;;;;4996403;28;20487;-78
2022/02/27 11:34:49;;;;;;;23.80;15.47;;;4.70;99.90;;;;;;5006451;28;20623;-78
2022/02/27 11:37:15;;;;;;;29.00;17.27;;;4.80;99.90;;;;;;4984661;28;20184;-79
2022/02/27 11:42:50;;;;;;;34.67;20.83;;;4.90;99.90;;;;;;4989525;28;20578;-80
2022/02/27 11:45:34;;;;;;;28.33;17.30;;;4.70;99.90;;;;;;4992310;28;20184;-81
2022/02/27 11:48:01;;;;;;;26.97;15.93;;;4.60;99.90;;;;;;4989114;28;20195;-81
2022/02/27 11:50:29;;;;;;;82.30;44.23;;;5.00;99.90;;;;;;5011955;28;21196;-79
2022/02/27 11:52:55;;;;;;;29.40;15.80;;;5.30;99.90;;;;;;5011893;28;20629;-80
2022/02/27 11:55:41;;;;;;;19.80;12.77;;;5.40;99.90;;;;;;4999132;28;20259;-80
2022/02/27 11:58:20;;;;;;;23.10;14.30;;;5.50;99.90;;;;;;4988515;28;20390;-78
2022/02/27 12:00:47;;;;;;;20.47;13.33;;;5.70;99.90;;;;;;4992453;28;20625;-83
2022/02/27 12:03:31;;;;;;;27.73;17.13;;;5.90;99.90;;;;;;4988330;28;20270;-78
2022/02/27 12:06:02;;;;;;;20.43;11.73;;;6.00;99.90;;;;;;4996707;28;20237;-79
2022/02/27 12:08:45;;;;;;;17.53;11.53;;;6.00;99.90;;;;;;5013370;28;20188;-82
2022/02/27 12:11:27;;;;;;;14.10;9.73;;;6.20;99.90;;;;;;4998900;28;21337;-82
2022/02/27 12:13:54;;;;;;;14.47;9.30;;;6.20;99.90;;;;;;4997824;28;21092;-79
2022/02/27 12:16:40;;;;;;;14.10;8.93;;;6.30;99.90;;;;;;4996166;28;20593;-80
2022/02/27 12:19:23;;;;;;;14.03;8.67;;;6.20;99.90;;;;;;4997657;28;20175;-80
2022/02/27 12:21:50;;;;;;;14.50;8.63;;;6.30;99.90;;;;;;5012034;28;20188;-78
2022/02/27 12:24:22;;;;;;;11.90;8.03;;;6.40;99.90;;;;;;4997756;28;20207;-83
2022/02/27 12:26:59;;;;;;;14.00;8.67;;;6.50;99.90;;;;;;4998203;28;20191;-80
2022/02/27 12:29:37;;;;;;;12.60;8.27;;;6.60;99.90;;;;;;4995712;28;20295;-78
2022/02/27 12:32:20;;;;;;;12.67;8.70;;;6.60;99.90;;;;;;4996953;28;20211;-80
2022/02/27 12:34:49;;;;;;;12.40;7.93;;;6.60;99.90;;;;;;4995262;28;20176;-80
2022/02/27 12:37:17;;;;;;;13.13;8.23;;;6.60;99.90;;;;;;4997190;28;20175;-79
2022/02/27 12:39:44;;;;;;;11.90;7.77;;;6.60;99.90;;;;;;4995216;28;20200;-78
2022/02/27 12:42:12;;;;;;;12.67;7.33;;;6.60;99.90;;;;;;4994775;28;20561;-78
2022/02/27 12:44:40;;;;;;;9.70;6.90;;;6.70;99.90;;;;;;5005458;28;20278;-78
2022/02/27 12:47:10;;;;;;;9.77;6.70;;;6.80;99.90;;;;;;5000940;28;20180;-77